Time;durP1;ratioP1;P1;durP2;ratioP2;P2;SDS_P1;SDS_P2;PMS_P1;PMS_P2;Temp;Humidity;BMP_temperature;BMP_pressure;BME280_temperature;BME280_humidity;BME280_pressure;Samples;Min_cycle;Max_cycle;Signal;HPM_P1;HPM_P2
2022/11/06 00:02:13;;;;;;;0.40;0.40;;;;;;;;;;1822144;78;26813;-59
2022/11/06 00:04:41;;;;;;;0.53;0.53;;;;;;;;;;1822722;78;26844;-60
2022/11/06 00:07:08;;;;;;;0.50;0.50;;;;;;;;;;1818959;78;27383;-59
2022/11/06 00:09:35;;;;;;;0.70;0.70;;;;;;;;;;1809829;78;26861;-59
2022/11/06 00:12:02;;;;;;;0.50;0.50;;;;;;;;;;1811586;79;26712;-59
2022/11/06 00:14:30;;;;;;;0.80;0.40;;;;;;;;;;1829696;78;26353;-58
2022/11/06 00:16:57;;;;;;;0.33;0.33;;;;;;;;;;1824476;78;26322;-59
2022/11/06 00:19:24;;;;;;;0.50;0.50;;;;;;;;;;1817963;78;26279;-59
2022/11/06 00:21:51;;;;;;;0.30;0.30;;;;;;;;;;1828563;78;26881;-59
2022/11/06 00:24:19;;;;;;;0.40;0.40;;;;;;;;;;1830992;78;26825;-59
2022/11/06 00:26:46;;;;;;;0.40;0.40;;;;;;;;;;1823897;78;26789;-60
2022/11/06 00:29:14;;;;;;;0.40;0.40;;;;;;;;;;1818284;78;26875;-59
2022/11/06 00:31:41;;;;;;;0.47;0.47;;;;;;;;;;1829587;78;26771;-59
2022/11/06 00:34:09;;;;;;;0.50;0.50;;;;;;;;;;1811347;78;26271;-59
2022/11/06 00:36:36;;;;;;;0.30;0.30;;;;;;;;;;1823746;78;27401;-59
2022/11/06 00:39:04;;;;;;;0.40;0.40;;;;;;;;;;1830874;78;26276;-59
2022/11/06 00:41:31;;;;;;;0.50;0.50;;;;;;;;;;1823999;78;26950;-58
2022/11/06 00:44:00;;;;;;;0.40;0.40;;;;;;;;;;1822906;78;26822;-59
2022/11/06 00:46:27;;;;;;;0.40;0.40;;;;;;;;;;1817745;78;26782;-59
2022/11/06 00:48:55;;;;;;;0.40;0.40;;;;;;;;;;1807269;78;26227;-59
2022/11/06 00:51:24;;;;;;;0.30;0.30;;;;;;;;;;1824309;78;26240;-59
2022/11/06 00:53:55;;;;;;;0.50;0.45;;;;;;;;;;1829513;78;26275;-59
2022/11/06 00:56:23;;;;;;;0.40;0.40;;;;;;;;;;1845248;77;26272;-58
2022/11/06 00:58:50;;;;;;;0.45;0.45;;;;;;;;;;1848398;77;26240;-58
2022/11/06 01:01:19;;;;;;;1.37;0.40;;;;;;;;;;1847507;77;26230;-58
2022/11/06 01:03:47;;;;;;;0.47;0.45;;;;;;;;;;1828921;77;26688;-59
2022/11/06 01:06:16;;;;;;;0.90;0.40;;;;;;;;;;1829317;77;26341;-59
2022/11/06 01:08:44;;;;;;;0.47;0.28;;;;;;;;;;1832788;77;26246;-59
2022/11/06 01:11:28;;;;;;;0.40;0.40;;;;;;;;;;1833461;77;26829;-59
2022/11/06 01:13:56;;;;;;;0.40;0.23;;;;;;;;;;1844926;77;26777;-59
2022/11/06 01:16:24;;;;;;;0.28;0.28;;;;;;;;;;1833803;77;26287;-58
2022/11/06 01:18:52;;;;;;;0.40;0.40;;;;;;;;;;1833541;77;26608;-59
2022/11/06 01:21:24;;;;;;;0.40;0.40;;;;;;;;;;1843359;77;25769;-59
2022/11/06 01:23:55;;;;;;;0.30;0.30;;;;;;;;;;1846795;77;26578;-59
2022/11/06 01:26:23;;;;;;;0.30;0.30;;;;;;;;;;1847999;77;27367;-59
2022/11/06 01:28:51;;;;;;;0.42;0.30;;;;;;;;;;1830689;77;26273;-59
2022/11/06 01:31:20;;;;;;;0.25;0.25;;;;;;;;;;1840869;77;26285;-59
2022/11/06 01:33:47;;;;;;;1.52;0.40;;;;;;;;;;1837031;77;26818;-59
2022/11/06 01:36:16;;;;;;;0.30;0.30;;;;;;;;;;1836566;77;26289;-58
2022/11/06 01:38:44;;;;;;;0.23;0.23;;;;;;;;;;1841500;77;26305;-58
2022/11/06 01:41:12;;;;;;;0.30;0.30;;;;;;;;;;1846424;77;27488;-57
2022/11/06 01:44:00;;;;;;;0.30;0.30;;;;;;;;;;1851818;77;26287;-57
2022/11/06 01:46:29;;;;;;;0.57;0.37;;;;;;;;;;1857529;77;26347;-58
2022/11/06 01:49:00;;;;;;;0.30;0.30;;;;;;;;;;1852385;77;26359;-58
2022/11/06 01:51:29;;;;;;;0.28;0.28;;;;;;;;;;1846781;77;26270;-58
2022/11/06 01:53:56;;;;;;;0.50;0.50;;;;;;;;;;1851892;77;26281;-59
2022/11/06 01:56:24;;;;;;;0.40;0.40;;;;;;;;;;1846967;77;26727;-58
2022/11/06 01:58:52;;;;;;;0.30;0.30;;;;;;;;;;1818739;77;26277;-58
2022/11/06 02:01:19;;;;;;;0.30;0.30;;;;;;;;;;1827789;77;26327;-59
2022/11/06 02:03:51;;;;;;;0.20;0.20;;;;;;;;;;1814631;78;26746;-59
2022/11/06 02:06:19;;;;;;;0.30;0.30;;;;;;;;;;1830767;78;26287;-59
2022/11/06 02:08:46;;;;;;;1.25;0.23;;;;;;;;;;1815791;78;27444;-58
2022/11/06 02:11:14;;;;;;;0.30;0.30;;;;;;;;;;1814092;78;26279;-58
2022/11/06 02:13:43;;;;;;;0.20;0.20;;;;;;;;;;1823925;78;26260;-58
2022/11/06 02:16:17;;;;;;;0.20;0.20;;;;;;;;;;1829812;78;26791;-58
2022/11/06 02:18:52;;;;;;;0.47;0.30;;;;;;;;;;1818745;78;26313;-58
2022/11/06 02:21:29;;;;;;;0.62;0.40;;;;;;;;;;1826196;78;26333;-59
2022/11/06 02:24:11;;;;;;;0.40;0.40;;;;;;;;;;1830996;78;26295;-59
2022/11/06 02:26:56;;;;;;;0.30;0.30;;;;;;;;;;1821621;78;26268;-59
2022/11/06 02:29:25;;;;;;;0.20;0.20;;;;;;;;;;1817460;78;27026;-59
2022/11/06 02:31:54;;;;;;;0.20;0.20;;;;;;;;;;1826445;78;26220;-59
2022/11/06 02:34:23;;;;;;;0.28;0.20;;;;;;;;;;1820984;78;26297;-58
2022/11/06 02:36:52;;;;;;;0.35;0.30;;;;;;;;;;1812482;78;26301;-60
2022/11/06 02:39:20;;;;;;;0.20;0.20;;;;;;;;;;1824302;78;26287;-60
2022/11/06 02:41:49;;;;;;;0.30;0.30;;;;;;;;;;1812998;78;26373;-59
2022/11/06 02:44:17;;;;;;;0.10;0.10;;;;;;;;;;1811276;78;26278;-59
2022/11/06 02:46:46;;;;;;;0.20;0.20;;;;;;;;;;1811032;78;26349;-59
2022/11/06 02:49:15;;;;;;;0.20;0.20;;;;;;;;;;1815677;78;26322;-59
2022/11/06 02:51:47;;;;;;;0.20;0.20;;;;;;;;;;1814192;78;26283;-59
2022/11/06 02:54:15;;;;;;;0.30;0.30;;;;;;;;;;1812570;78;26703;-59
2022/11/06 02:56:44;;;;;;;0.23;0.23;;;;;;;;;;1832550;77;26297;-59
2022/11/06 02:59:13;;;;;;;1.12;0.20;;;;;;;;;;1843503;77;26351;-60
2022/11/06 03:01:41;;;;;;;0.10;0.10;;;;;;;;;;1857700;77;26368;-59
2022/11/06 03:04:10;;;;;;;1.25;0.17;;;;;;;;;;1850374;77;26233;-60
2022/11/06 03:06:39;;;;;;;0.10;0.10;;;;;;;;;;1834609;77;26297;-59
2022/11/06 03:09:08;;;;;;;0.30;0.30;;;;;;;;;;1838578;77;26719;-59
2022/11/06 03:11:39;;;;;;;0.10;0.10;;;;;;;;;;1855892;77;26801;-60
2022/11/06 03:14:08;;;;;;;0.20;0.20;;;;;;;;;;1845327;77;26377;-60
2022/11/06 03:16:48;;;;;;;0.25;0.25;;;;;;;;;;1838869;77;26355;-59
2022/11/06 03:19:21;;;;;;;0.20;0.20;;;;;;;;;;1843145;77;26651;-59
2022/11/06 03:22:05;;;;;;;0.33;0.33;;;;;;;;;;1855616;77;26278;-58
2022/11/06 03:24:39;;;;;;;0.10;0.10;;;;;;;;;;1847919;77;26258;-57
2022/11/06 03:27:09;;;;;;;0.23;0.23;;;;;;;;;;1856959;77;26360;-58
2022/11/06 03:29:41;;;;;;;0.20;0.20;;;;;;;;;;1792778;74;26414;-58
2022/11/06 03:32:22;;;;;;;0.20;0.20;;;;;;;;;;1802126;79;26626;-57
2022/11/06 03:34:56;;;;;;;0.30;0.30;;;;;;;;;;1804656;75;26415;-58
2022/11/06 03:37:26;;;;;;;0.20;0.20;;;;;;;;;;1795254;78;26354;-57
2022/11/06 03:39:55;;;;;;;0.20;0.20;;;;;;;;;;1788860;78;27824;-57
2022/11/06 03:42:26;;;;;;;0.17;0.17;;;;;;;;;;1782526;79;26276;-57
2022/11/06 03:44:55;;;;;;;0.15;0.10;;;;;;;;;;1784628;78;26388;-58
2022/11/06 03:47:24;;;;;;;0.30;0.30;;;;;;;;;;1791795;78;26357;-58
2022/11/06 03:49:53;;;;;;;0.20;0.20;;;;;;;;;;1833193;74;26304;-58
2022/11/06 03:52:39;;;;;;;0.10;0.10;;;;;;;;;;1837974;78;26261;-58
2022/11/06 03:55:08;;;;;;;0.10;0.10;;;;;;;;;;1914402;73;26348;-58
2022/11/06 03:57:40;;;;;;;0.80;0.20;;;;;;;;;;1908354;73;26262;-59
2022/11/06 04:00:08;;;;;;;0.20;0.20;;;;;;;;;;1907239;73;26641;-58
2022/11/06 04:02:37;;;;;;;0.90;0.30;;;;;;;;;;1884623;73;26708;-58
2022/11/06 04:05:06;;;;;;;0.30;0.30;;;;;;;;;;1886202;73;26625;-58
2022/11/06 04:07:37;;;;;;;0.30;0.30;;;;;;;;;;1891208;73;26549;-57
2022/11/06 04:15:35;;;;;;;0.33;0.28;;;;;;;;;;1901942;73;27418;-59
2022/11/06 04:18:02;;;;;;;0.30;0.30;;;;;;;;;;1885142;73;26807;-58
2022/11/06 04:23:24;;;;;;;0.20;0.20;;;;;;;;;;1898939;73;26715;-58
2022/11/06 04:28:54;;;;;;;0.10;0.10;;;;;;;;;;1892126;73;26341;-59
2022/11/06 04:31:23;;;;;;;0.15;0.15;;;;;;;;;;1883341;73;26306;-58
2022/11/06 04:34:01;;;;;;;0.30;0.30;;;;;;;;;;1886480;73;26298;-59
2022/11/06 04:36:32;;;;;;;0.13;0.13;;;;;;;;;;1898753;73;26232;-59
2022/11/06 04:39:04;;;;;;;0.20;0.20;;;;;;;;;;1888250;73;26309;-59
2022/11/06 04:41:36;;;;;;;0.30;0.30;;;;;;;;;;1891723;73;26220;-59
2022/11/06 04:44:05;;;;;;;0.30;0.30;;;;;;;;;;1883521;73;26715;-59
2022/11/06 04:46:34;;;;;;;0.30;0.30;;;;;;;;;;1880099;73;26249;-58
2022/11/06 04:49:02;;;;;;;0.20;0.20;;;;;;;;;;1897003;73;26259;-59
2022/11/06 04:51:31;;;;;;;0.20;0.20;;;;;;;;;;1886484;73;26811;-59
2022/11/06 04:53:59;;;;;;;2.65;0.20;;;;;;;;;;1884386;73;26302;-58
2022/11/06 04:56:27;;;;;;;0.20;0.20;;;;;;;;;;1884978;75;26527;-58
2022/11/06 04:58:55;;;;;;;0.20;0.20;;;;;;;;;;1881513;75;26259;-59
2022/11/06 05:01:22;;;;;;;0.30;0.30;;;;;;;;;;1911040;75;26247;-59
2022/11/06 05:03:49;;;;;;;1.17;0.20;;;;;;;;;;1892479;73;26751;-59
2022/11/06 05:06:21;;;;;;;0.30;0.30;;;;;;;;;;1892080;73;26348;-59
2022/11/06 05:08:48;;;;;;;0.33;0.33;;;;;;;;;;1834844;74;26463;-58
2022/11/06 05:11:16;;;;;;;0.35;0.35;;;;;;;;;;1834693;78;26288;-58
2022/11/06 05:13:43;;;;;;;0.30;0.30;;;;;;;;;;1823509;78;26299;-58
2022/11/06 05:16:10;;;;;;;0.33;0.30;;;;;;;;;;1821077;77;26597;-59
2022/11/06 05:18:38;;;;;;;0.37;0.35;;;;;;;;;;1815989;78;26267;-60
2022/11/06 05:23:50;;;;;;;0.30;0.30;;;;;;;;;;1825113;78;26273;-57
2022/11/06 05:26:17;;;;;;;0.72;0.40;;;;;;;;;;1816546;78;26349;-57
2022/11/06 05:28:45;;;;;;;0.10;0.10;;;;;;;;;;1821433;78;26304;-58
2022/11/06 05:31:12;;;;;;;0.25;0.25;;;;;;;;;;1816090;78;26337;-57
2022/11/06 05:33:40;;;;;;;0.25;0.25;;;;;;;;;;1835178;78;26283;-58
2022/11/06 05:36:07;;;;;;;1.27;0.28;;;;;;;;;;1813615;78;26311;-58
2022/11/06 05:38:34;;;;;;;0.30;0.30;;;;;;;;;;1816573;78;26287;-57
2022/11/06 05:41:02;;;;;;;0.20;0.20;;;;;;;;;;1806495;78;26284;-57
2022/11/06 05:43:29;;;;;;;0.25;0.25;;;;;;;;;;1807667;78;26382;-58
2022/11/06 05:45:57;;;;;;;0.37;0.37;;;;;;;;;;1813378;78;26330;-58
2022/11/06 05:48:24;;;;;;;0.20;0.20;;;;;;;;;;1817637;78;26295;-58
2022/11/06 05:50:51;;;;;;;0.30;0.30;;;;;;;;;;1820857;78;26705;-58
2022/11/06 05:53:18;;;;;;;0.62;0.30;;;;;;;;;;1812671;78;26283;-57
2022/11/06 05:55:47;;;;;;;0.53;0.40;;;;;;;;;;1831446;78;26273;-58
2022/11/06 05:58:14;;;;;;;0.30;0.30;;;;;;;;;;1822202;78;26331;-58
2022/11/06 06:00:41;;;;;;;0.23;0.23;;;;;;;;;;1820249;76;26257;-57
2022/11/06 06:03:09;;;;;;;0.30;0.30;;;;;;;;;;1818862;78;26252;-57
2022/11/06 06:05:36;;;;;;;0.35;0.35;;;;;;;;;;1814372;78;26669;-58
2022/11/06 06:08:04;;;;;;;1.32;0.40;;;;;;;;;;1822984;76;26352;-58
2022/11/06 06:10:32;;;;;;;0.20;0.20;;;;;;;;;;1814368;78;26902;-58
2022/11/06 06:12:59;;;;;;;0.30;0.30;;;;;;;;;;1821429;78;27290;-59
2022/11/06 06:15:26;;;;;;;0.90;0.40;;;;;;;;;;1820234;78;26863;-58
2022/11/06 06:17:53;;;;;;;0.25;0.25;;;;;;;;;;1820829;78;26744;-58
2022/11/06 06:20:21;;;;;;;2.20;0.40;;;;;;;;;;1822064;78;26728;-54
2022/11/06 06:22:55;;;;;;;0.33;0.33;;;;;;;;;;1823683;78;26334;-58
2022/11/06 06:25:22;;;;;;;0.65;0.35;;;;;;;;;;1823288;78;26319;-58
2022/11/06 06:27:50;;;;;;;0.70;0.40;;;;;;;;;;1825158;78;26282;-58
2022/11/06 06:30:18;;;;;;;0.47;0.33;;;;;;;;;;1820080;78;26287;-58
2022/11/06 06:32:45;;;;;;;0.53;0.50;;;;;;;;;;1826332;78;26323;-58
2022/11/06 06:35:12;;;;;;;0.45;0.40;;;;;;;;;;1827659;78;26334;-58
2022/11/06 06:37:40;;;;;;;2.75;0.50;;;;;;;;;;1820983;78;26729;-58
2022/11/06 06:40:08;;;;;;;0.35;0.35;;;;;;;;;;1813092;74;26429;-61
2022/11/06 06:42:35;;;;;;;0.85;0.45;;;;;;;;;;1808467;78;26217;-58
2022/11/06 06:45:02;;;;;;;0.40;0.40;;;;;;;;;;1807164;78;26881;-57
2022/11/06 06:47:29;;;;;;;0.85;0.50;;;;;;;;;;1801386;78;26295;-57
2022/11/06 06:49:57;;;;;;;0.62;0.62;;;;;;;;;;1809204;77;26722;-58
2022/11/06 06:52:24;;;;;;;0.60;0.40;;;;;;;;;;1805712;78;26260;-60
2022/11/06 06:54:51;;;;;;;0.82;0.40;;;;;;;;;;1814159;78;26277;-59
2022/11/06 06:57:19;;;;;;;0.68;0.40;;;;;;;;;;1804127;78;26224;-58
2022/11/06 06:59:46;;;;;;;0.78;0.30;;;;;;;;;;1823256;78;26280;-58
2022/11/06 07:02:13;;;;;;;2.52;0.50;;;;;;;;;;1809805;78;26257;-58
2022/11/06 07:04:41;;;;;;;0.40;0.40;;;;;;;;;;1804560;78;26891;-57
2022/11/06 07:07:08;;;;;;;2.92;0.40;;;;;;;;;;1809245;78;27667;-58
2022/11/06 07:09:35;;;;;;;0.68;0.40;;;;;;;;;;1808136;77;26748;-58
2022/11/06 07:12:03;;;;;;;1.42;0.50;;;;;;;;;;1809230;78;26603;-58
2022/11/06 07:14:30;;;;;;;0.70;0.40;;;;;;;;;;1804755;78;26402;-58
2022/11/06 07:16:57;;;;;;;1.30;0.40;;;;;;;;;;1809662;77;26293;-58
2022/11/06 07:19:24;;;;;;;0.45;0.45;;;;;;;;;;1821724;78;26265;-58
2022/11/06 07:21:52;;;;;;;2.12;0.30;;;;;;;;;;1809122;78;26294;-57
2022/11/06 07:24:19;;;;;;;1.75;0.30;;;;;;;;;;1803615;78;26795;-56
2022/11/06 07:26:47;;;;;;;2.95;0.30;;;;;;;;;;1821271;78;26855;-57
2022/11/06 07:29:14;;;;;;;0.53;0.30;;;;;;;;;;1811351;78;26525;-57
2022/11/06 07:31:41;;;;;;;1.42;0.40;;;;;;;;;;1800954;78;26269;-57
2022/11/06 07:34:09;;;;;;;0.53;0.30;;;;;;;;;;1821421;78;26335;-57
2022/11/06 07:36:36;;;;;;;0.33;0.33;;;;;;;;;;1813215;78;26334;-57
2022/11/06 07:39:03;;;;;;;0.53;0.42;;;;;;;;;;1811742;78;26646;-58
2022/11/06 07:41:31;;;;;;;0.40;0.40;;;;;;;;;;1816682;78;26236;-58
2022/11/06 07:43:58;;;;;;;0.50;0.50;;;;;;;;;;1813197;78;26333;-57
2022/11/06 07:46:26;;;;;;;0.35;0.35;;;;;;;;;;1825669;78;26831;-57
2022/11/06 07:48:53;;;;;;;0.90;0.50;;;;;;;;;;1818943;78;26794;-58
2022/11/06 07:51:21;;;;;;;0.40;0.40;;;;;;;;;;1817711;78;26405;-57
2022/11/06 07:53:48;;;;;;;0.30;0.30;;;;;;;;;;1830719;78;26276;-56
2022/11/06 07:56:15;;;;;;;0.37;0.37;;;;;;;;;;1824851;78;26353;-57
2022/11/06 07:58:43;;;;;;;0.45;0.40;;;;;;;;;;1819991;78;26758;-57
2022/11/06 08:01:14;;;;;;;0.45;0.40;;;;;;;;;;1828947;76;27264;-58
2022/11/06 08:03:42;;;;;;;0.40;0.40;;;;;;;;;;1818829;76;26279;-58
2022/11/06 08:06:09;;;;;;;1.92;0.47;;;;;;;;;;1821723;78;26362;-58
2022/11/06 08:08:38;;;;;;;2.40;0.68;;;;;;;;;;1815740;78;26324;-58
2022/11/06 08:11:07;;;;;;;1.72;0.60;;;;;;;;;;1823800;78;26232;-58
2022/11/06 08:13:34;;;;;;;0.68;0.50;;;;;;;;;;1817415;78;26271;-59
2022/11/06 08:16:05;;;;;;;4.30;0.45;;;;;;;;;;1824833;78;26716;-59
2022/11/06 08:18:33;;;;;;;4.83;0.60;;;;;;;;;;1829726;78;26376;-58
2022/11/06 08:21:01;;;;;;;3.40;0.70;;;;;;;;;;1828419;78;27373;-58
2022/11/06 08:23:29;;;;;;;2.75;0.53;;;;;;;;;;1809252;78;28273;-55
2022/11/06 08:25:57;;;;;;;5.50;0.70;;;;;;;;;;1817909;78;27152;-58
2022/11/06 08:28:25;;;;;;;6.25;1.05;;;;;;;;;;1831796;78;26267;-59
2022/11/06 08:30:53;;;;;;;4.80;0.90;;;;;;;;;;1831130;78;26256;-58
2022/11/06 08:33:21;;;;;;;7.03;0.90;;;;;;;;;;1822461;78;26728;-55
2022/11/06 08:35:48;;;;;;;10.23;1.60;;;;;;;;;;1821672;78;26254;-57
2022/11/06 08:38:16;;;;;;;1.62;0.60;;;;;;;;;;1820017;78;26335;-58
2022/11/06 08:40:43;;;;;;;7.37;1.50;;;;;;;;;;1829052;78;26362;-58
2022/11/06 08:43:10;;;;;;;2.60;1.02;;;;;;;;;;1832303;78;26255;-57
2022/11/06 08:45:40;;;;;;;5.87;1.00;;;;;;;;;;1827684;78;26292;-57
2022/11/06 08:48:08;;;;;;;7.03;0.80;;;;;;;;;;1825199;78;26275;-58
2022/11/06 08:50:36;;;;;;;3.30;0.70;;;;;;;;;;1829042;78;26755;-57
2022/11/06 08:53:05;;;;;;;3.98;0.78;;;;;;;;;;1830715;78;26338;-54
2022/11/06 08:55:33;;;;;;;3.47;0.70;;;;;;;;;;1827423;78;26241;-58
2022/11/06 08:58:00;;;;;;;4.15;0.70;;;;;;;;;;1821739;78;26264;-57
2022/11/06 09:00:28;;;;;;;2.77;0.60;;;;;;;;;;1794585;78;26749;-58
2022/11/06 09:02:59;;;;;;;5.80;0.70;;;;;;;;;;1811555;77;26247;-58
2022/11/06 09:05:27;;;;;;;2.62;0.98;;;;;;;;;;1804447;78;26304;-54
2022/11/06 09:07:55;;;;;;;5.58;0.60;;;;;;;;;;1804095;77;27160;-58
2022/11/06 09:10:23;;;;;;;2.98;0.70;;;;;;;;;;1818888;79;26267;-57
2022/11/06 09:12:50;;;;;;;2.77;0.60;;;;;;;;;;1800313;79;26770;-59
2022/11/06 09:15:19;;;;;;;4.50;0.70;;;;;;;;;;1802244;79;26357;-56
2022/11/06 09:17:47;;;;;;;1.85;0.60;;;;;;;;;;1802022;79;26350;-58
2022/11/06 09:20:16;;;;;;;3.80;0.70;;;;;;;;;;1797567;79;26264;-57
2022/11/06 09:22:43;;;;;;;5.78;0.70;;;;;;;;;;1795816;79;26355;-57
2022/11/06 09:25:11;;;;;;;3.35;0.70;;;;;;;;;;1792793;79;26289;-58
2022/11/06 09:27:42;;;;;;;2.40;0.68;;;;;;;;;;1793629;79;26379;-59
2022/11/06 09:30:10;;;;;;;1.70;0.60;;;;;;;;;;1796346;79;26302;-58
2022/11/06 09:32:38;;;;;;;0.95;0.88;;;;;;;;;;1796236;79;26310;-60
2022/11/06 09:35:05;;;;;;;4.67;0.90;;;;;;;;;;1791963;79;26742;-52
2022/11/06 09:37:33;;;;;;;3.47;0.75;;;;;;;;;;1788164;79;26321;-51
2022/11/06 09:40:00;;;;;;;2.17;0.53;;;;;;;;;;1803062;79;26332;-49
2022/11/06 09:42:45;;;;;;;0.95;0.80;;;;;;;;;;1797097;79;26318;-49
2022/11/06 09:45:21;;;;;;;1.67;0.62;;;;;;;;;;1795579;79;26759;-54
2022/11/06 09:47:49;;;;;;;3.35;0.75;;;;;;;;;;1797268;79;26347;-57
2022/11/06 09:50:19;;;;;;;3.75;0.90;;;;;;;;;;1795027;79;26264;-48
2022/11/06 09:52:56;;;;;;;2.72;0.70;;;;;;;;;;1790585;79;26291;-55
2022/11/06 09:55:28;;;;;;;4.40;0.65;;;;;;;;;;1795516;79;26876;-55
2022/11/06 09:57:57;;;;;;;0.60;0.60;;;;;;;;;;1789728;79;26616;-53
2022/11/06 10:00:24;;;;;;;0.75;0.57;;;;;;;;;;1783890;79;25746;-54
2022/11/06 10:02:53;;;;;;;2.20;0.70;;;;;;;;;;1799853;77;27377;-54
2022/11/06 10:05:28;;;;;;;1.95;0.50;;;;;;;;;;1787867;79;27557;-55
2022/11/06 10:08:02;;;;;;;1.65;0.40;;;;;;;;;;1788260;79;26287;-51
2022/11/06 10:10:37;;;;;;;2.95;0.70;;;;;;;;;;1792525;79;26278;-54
2022/11/06 10:13:06;;;;;;;4.62;0.80;;;;;;;;;;1787166;79;26366;-56
2022/11/06 10:15:35;;;;;;;1.47;0.68;;;;;;;;;;1779802;79;26338;-55
2022/11/06 10:18:21;;;;;;;7.67;0.70;;;;;;;;;;1796392;79;26344;-55
2022/11/06 10:20:52;;;;;;;3.00;0.57;;;;;;;;;;1784353;79;26302;-54
2022/11/06 10:23:21;;;;;;;1.52;0.70;;;;;;;;;;1784826;79;26337;-55
2022/11/06 10:26:04;;;;;;;0.50;0.50;;;;;;;;;;1792007;79;26279;-55
2022/11/06 10:28:39;;;;;;;2.40;0.60;;;;;;;;;;1793905;79;26330;-53
2022/11/06 10:31:10;;;;;;;3.33;0.78;;;;;;;;;;1785263;79;26743;-54
2022/11/06 10:33:39;;;;;;;1.80;1.00;;;;;;;;;;1793175;79;26876;-56
2022/11/06 10:36:08;;;;;;;4.12;0.90;;;;;;;;;;1783973;79;26314;-55
2022/11/06 10:38:37;;;;;;;2.95;0.70;;;;;;;;;;1787135;79;26349;-55
2022/11/06 10:41:05;;;;;;;3.75;0.70;;;;;;;;;;1786646;78;26267;-52
2022/11/06 10:43:34;;;;;;;2.87;0.70;;;;;;;;;;1796122;79;26758;-56
2022/11/06 10:46:05;;;;;;;3.70;0.90;;;;;;;;;;1782455;79;26302;-53
2022/11/06 10:48:34;;;;;;;0.95;0.80;;;;;;;;;;1788782;79;26260;-53
2022/11/06 10:51:03;;;;;;;1.37;0.70;;;;;;;;;;1789613;79;26321;-52
2022/11/06 10:53:32;;;;;;;0.70;0.70;;;;;;;;;;1786260;79;26313;-51
2022/11/06 10:56:10;;;;;;;1.07;0.65;;;;;;;;;;1785994;79;26672;-57
2022/11/06 10:58:37;;;;;;;4.00;0.70;;;;;;;;;;1782889;79;26255;-55
2022/11/06 11:01:05;;;;;;;0.70;0.60;;;;;;;;;;1785170;79;26293;-52
2022/11/06 11:03:34;;;;;;;1.15;0.50;;;;;;;;;;1786430;79;26267;-54
2022/11/06 11:06:03;;;;;;;2.22;0.60;;;;;;;;;;1790735;79;26846;-55
2022/11/06 11:08:32;;;;;;;0.88;0.70;;;;;;;;;;1795473;79;27485;-57
2022/11/06 11:11:03;;;;;;;2.83;0.85;;;;;;;;;;1792492;79;26306;-56
2022/11/06 11:13:31;;;;;;;7.20;0.82;;;;;;;;;;1792962;79;26353;-57
2022/11/06 11:15:58;;;;;;;1.22;1.02;;;;;;;;;;1787433;79;26737;-53
2022/11/06 11:18:33;;;;;;;2.70;0.80;;;;;;;;;;1793157;79;26313;-55
2022/11/06 11:21:04;;;;;;;4.17;0.78;;;;;;;;;;1787344;79;26365;-55
2022/11/06 11:23:32;;;;;;;0.65;0.60;;;;;;;;;;1789067;79;26326;-51
2022/11/06 11:26:00;;;;;;;0.70;0.70;;;;;;;;;;1789399;79;26282;-54
2022/11/06 11:28:29;;;;;;;2.33;0.85;;;;;;;;;;1785568;79;26236;-53
2022/11/06 11:31:10;;;;;;;1.82;0.70;;;;;;;;;;1796593;79;26771;-54
2022/11/06 11:33:39;;;;;;;0.65;0.55;;;;;;;;;;1794872;79;26314;-53
2022/11/06 11:36:07;;;;;;;1.20;0.70;;;;;;;;;;1786599;79;28391;-47
2022/11/06 11:38:39;;;;;;;0.62;0.60;;;;;;;;;;1791329;79;26663;-51
2022/11/06 11:41:07;;;;;;;0.85;0.62;;;;;;;;;;1800558;79;26805;-53
2022/11/06 11:43:35;;;;;;;0.60;0.60;;;;;;;;;;1782550;79;26298;-52
2022/11/06 11:46:10;;;;;;;0.75;0.45;;;;;;;;;;1788302;79;27494;-57
2022/11/06 11:48:42;;;;;;;1.55;0.75;;;;;;;;;;1786470;79;26284;-55
2022/11/06 11:51:17;;;;;;;0.88;0.70;;;;;;;;;;1786394;79;26400;-49
2022/11/06 11:53:44;;;;;;;0.50;0.50;;;;;;;;;;1789813;79;26298;-52
2022/11/06 11:56:19;;;;;;;0.50;0.50;;;;;;;;;;1792508;79;26343;-51
2022/11/06 11:58:51;;;;;;;1.85;0.60;;;;;;;;;;1789387;79;26357;-51
2022/11/06 12:01:19;;;;;;;0.57;0.57;;;;;;;;;;1788856;79;26282;-53
2022/11/06 12:03:48;;;;;;;0.60;0.60;;;;;;;;;;1792036;77;26812;-50
2022/11/06 12:06:17;;;;;;;1.00;0.62;;;;;;;;;;1787846;79;26360;-50
2022/11/06 12:08:46;;;;;;;0.82;0.53;;;;;;;;;;1787883;79;26368;-52
2022/11/06 12:11:15;;;;;;;0.62;0.62;;;;;;;;;;1797940;79;26295;-48
2022/11/06 12:13:42;;;;;;;0.70;0.70;;;;;;;;;;1805506;79;26372;-51
2022/11/06 12:16:11;;;;;;;0.60;0.60;;;;;;;;;;1803710;79;26366;-51
2022/11/06 12:18:40;;;;;;;0.60;0.60;;;;;;;;;;1810638;79;26341;-48
2022/11/06 12:21:09;;;;;;;0.70;0.60;;;;;;;;;;1807268;79;26319;-48
2022/11/06 12:23:53;;;;;;;0.65;0.65;;;;;;;;;;1805235;79;26221;-48
2022/11/06 12:26:21;;;;;;;0.60;0.60;;;;;;;;;;1808091;79;26636;-52
2022/11/06 12:28:50;;;;;;;1.62;0.57;;;;;;;;;;1806806;79;26264;-53
2022/11/06 12:31:19;;;;;;;0.57;0.57;;;;;;;;;;1805376;79;26754;-53
2022/11/06 12:33:51;;;;;;;0.55;0.50;;;;;;;;;;1804169;79;27550;-51
2022/11/06 12:36:17;;;;;;;0.40;0.40;;;;;;;;;;1807097;79;26727;-51
2022/11/06 12:38:58;;;;;;;0.50;0.50;;;;;;;;;;1811618;79;27354;-49
2022/11/06 12:41:27;;;;;;;0.70;0.70;;;;;;;;;;1797562;79;26232;-56
2022/11/06 12:43:55;;;;;;;0.55;0.55;;;;;;;;;;1758656;81;26337;-50
2022/11/06 12:46:36;;;;;;;0.57;0.57;;;;;;;;;;1764484;81;26294;-51
2022/11/06 12:49:22;;;;;;;0.60;0.60;;;;;;;;;;1764429;81;26270;-51
2022/11/06 12:52:07;;;;;;;0.60;0.60;;;;;;;;;;1764470;80;26371;-52
2022/11/06 12:54:48;;;;;;;0.70;0.70;;;;;;;;;;1764165;81;26363;-51
2022/11/06 12:57:20;;;;;;;0.70;0.70;;;;;;;;;;1764555;81;26373;-51
2022/11/06 13:00:05;;;;;;;7.05;1.45;;;;;;;;;;1755637;81;26302;-50
2022/11/06 13:02:46;;;;;;;4.83;0.90;;;;;;;;;;1764268;81;26364;-56
2022/11/06 13:05:15;;;;;;;2.75;0.80;;;;;;;;;;1764478;80;26356;-49
2022/11/06 13:07:53;;;;;;;6.67;0.65;;;;;;;;;;1764231;81;26298;-50
2022/11/06 13:10:21;;;;;;;4.97;0.70;;;;;;;;;;1747966;81;26293;-49
2022/11/06 13:13:07;;;;;;;2.87;0.70;;;;;;;;;;1763869;80;26306;-52
2022/11/06 13:15:42;;;;;;;6.03;0.95;;;;;;;;;;1764250;81;26372;-55
2022/11/06 13:18:27;;;;;;;2.87;0.70;;;;;;;;;;1764434;80;26289;-55
2022/11/06 13:20:58;;;;;;;0.70;0.70;;;;;;;;;;1764183;80;26379;-52
2022/11/06 13:23:27;;;;;;;2.80;0.80;;;;;;;;;;1764213;80;26286;-51
2022/11/06 13:26:13;;;;;;;7.78;1.00;;;;;;;;;;1764188;81;26290;-54
2022/11/06 13:28:42;;;;;;;3.37;0.85;;;;;;;;;;1762767;81;27184;-51
2022/11/06 13:31:10;;;;;;;4.95;1.00;;;;;;;;;;1764190;80;26672;-57
2022/11/06 13:33:39;;;;;;;1.45;0.80;;;;;;;;;;1762309;81;26780;-58
2022/11/06 13:36:07;;;;;;;2.35;0.80;;;;;;;;;;1759725;81;26663;-58
2022/11/06 13:38:36;;;;;;;3.90;1.00;;;;;;;;;;1750015;81;30817;-54
2022/11/06 13:41:05;;;;;;;2.00;0.90;;;;;;;;;;1753208;81;28288;-51
2022/11/06 13:43:38;;;;;;;2.30;0.70;;;;;;;;;;1778895;79;26417;-56
2022/11/06 13:46:06;;;;;;;3.45;1.55;;;;;;;;;;1802985;79;26356;-55
2022/11/06 13:48:47;;;;;;;2.17;0.70;;;;;;;;;;1803410;79;26372;-55
2022/11/06 13:51:31;;;;;;;3.77;0.70;;;;;;;;;;1793364;79;27016;-54
2022/11/06 13:54:00;;;;;;;1.12;0.75;;;;;;;;;;1737902;82;26317;-50
2022/11/06 13:56:29;;;;;;;2.00;0.70;;;;;;;;;;1732848;79;26304;-54
2022/11/06 13:59:04;;;;;;;1.30;0.70;;;;;;;;;;1803191;79;26326;-58
2022/11/06 14:01:32;;;;;;;4.70;0.75;;;;;;;;;;1793472;79;26231;-55
2022/11/06 14:04:18;;;;;;;2.87;0.80;;;;;;;;;;1803874;77;26287;-56
2022/11/06 14:06:46;;;;;;;2.90;0.85;;;;;;;;;;1800419;79;26876;-53
2022/11/06 14:09:17;;;;;;;2.15;0.72;;;;;;;;;;1816039;79;26333;-50
2022/11/06 14:11:46;;;;;;;2.58;0.82;;;;;;;;;;1817181;79;26271;-51
2022/11/06 14:14:15;;;;;;;0.80;0.80;;;;;;;;;;1809860;79;26264;-52
2022/11/06 14:16:42;;;;;;;3.00;0.70;;;;;;;;;;1796074;79;26360;-52
2022/11/06 14:19:14;;;;;;;2.42;0.68;;;;;;;;;;1802078;79;26290;-52
2022/11/06 14:21:46;;;;;;;5.40;0.80;;;;;;;;;;1804749;79;26786;-51
2022/11/06 14:24:20;;;;;;;6.08;0.90;;;;;;;;;;1818595;79;26801;-55
2022/11/06 14:26:49;;;;;;;5.58;1.00;;;;;;;;;;1800537;79;26322;-54
2022/11/06 14:29:27;;;;;;;1.65;0.68;;;;;;;;;;1812560;79;26719;-54
2022/11/06 14:32:01;;;;;;;2.55;0.78;;;;;;;;;;1802786;79;26362;-52
2022/11/06 14:34:30;;;;;;;5.70;0.78;;;;;;;;;;1818579;79;26253;-52
2022/11/06 14:36:57;;;;;;;1.40;0.95;;;;;;;;;;1815818;79;26276;-52
2022/11/06 14:39:42;;;;;;;2.70;0.80;;;;;;;;;;1804997;79;26349;-49
2022/11/06 14:42:10;;;;;;;0.95;0.72;;;;;;;;;;1801851;79;26346;-52
2022/11/06 14:44:42;;;;;;;1.25;0.78;;;;;;;;;;1792936;79;27228;-55
2022/11/06 14:47:12;;;;;;;0.85;0.80;;;;;;;;;;1799909;79;26279;-58
2022/11/06 14:49:42;;;;;;;0.80;0.80;;;;;;;;;;1811607;79;26817;-58
2022/11/06 14:52:11;;;;;;;0.93;0.70;;;;;;;;;;1798433;79;26405;-57
2022/11/06 14:54:40;;;;;;;1.95;0.75;;;;;;;;;;1805560;79;26279;-55
2022/11/06 14:57:09;;;;;;;2.83;0.90;;;;;;;;;;1813522;79;26378;-58
2022/11/06 14:59:38;;;;;;;1.35;0.70;;;;;;;;;;1808359;79;26303;-59
2022/11/06 15:02:13;;;;;;;0.70;0.70;;;;;;;;;;1809360;79;26279;-58
2022/11/06 15:04:45;;;;;;;2.35;0.70;;;;;;;;;;1805886;79;26943;-58
2022/11/06 15:07:13;;;;;;;2.50;0.57;;;;;;;;;;1809652;79;26271;-58
2022/11/06 15:09:45;;;;;;;1.70;0.60;;;;;;;;;;1801418;79;26324;-55
2022/11/06 15:12:12;;;;;;;1.32;0.93;;;;;;;;;;1792994;79;26818;-55
2022/11/06 15:14:41;;;;;;;1.25;0.70;;;;;;;;;;1804847;79;27337;-51